EEKE

Kuressaare Airport

Kuressaare, Estonia
METAR EEKE 201850Z AUTO 31005KT 270V340 9999NDV -RA FEW006 BKN008 15/14 Q1004
Observed Flight Rules
Aug-20 @ 18:50 UTC (9 hours ago)
Wind Clouds Conditions
310° at 5 knots
  • Few at 600' AGL
  • Broken at 800' AGL
  • Light Rain
Temperatures Readings
Current 15°C / 59°F
Dewpoint 14°C / 57°F
Humidity 94%
Altimeter 29.65" Hg
Pressure 1004 hPa
Elevation 4
METAR EEKE 201850Z AUTO 31005KT 270V340 9999NDV -RA FEW006 BKN008 15/14 Q1004
Observed Flight Rules
Aug-20 @ 18:50 UTC
(9 hours ago)
Wind
310° at 5 knots
Clouds
  • Few at 600' AGL
  • Broken at 800' AGL
Conditions
  • Light Rain
Temperature Dewpoint
15°C / 59°F 14°C / 57°F
Humidity Altimeter Pressure
94% 29.65" Hg 1004 hPa